Latest Weather Observations for Weipa

IDQ60801

Issued at 11:02 am EST Wednesday 1 July 2015 (issued every 30 minutes, with the page automatically refreshed every 10 minutes)

About weather observations | Map of weather stations | Latest weather observations for QLD | Other Formats
Station Details ID: 027045 Name: WEIPA AERO Lat: -12.68 Lon: 141.92 Height: 17.96 m
Data from the previous 72 hours. | See also: Recent months at Weipa
Date/Time
EST
Temp
°C
App
Temp
°C
Dew
Point
Rel
Hum
%
Delta-T
°C
Wind Press
QNH
hPa
Press
MSL
hPa
Rain
since 9 am
mm
Dir
 
Spd
km/h
Gust
km/h
Spd
kts
Gust
kts
01/11:00am 26.0 24.2 18.8 64 4.6 SE 26 37 14 20 1017.3 - 0.0
01/10:30am 26.2 24.7 19.4 66 4.4 SE 26 41 14 22 1017.4 - 0.0
01/10:00am 25.7 25.6 19.6 69 3.9 ESE 19 28 10 15 1017.5 - 0.0
01/09:30am 24.7 24.0 19.5 73 3.3 SE 22 32 12 17 1017.7 - 0.0
01/09:00am 23.9 24.0 19.9 78 2.6 SE 19 30 10 16 1017.6 1017.5 1.0
01/08:30am 22.9 23.7 19.9 83 1.9 SSE 15 24 8 13 1017.3 - 1.0
01/08:00am 21.8 24.2 20.0 89 1.2 SSE 7 15 4 8 1016.9 - 1.0
01/07:30am 21.1 23.5 20.1 94 0.6 SSE 7 11 4 6 1016.7 - 1.0
01/07:00am 20.9 23.3 20.1 95 0.5 SE 7 9 4 5 1016.6 - 1.0
01/06:30am 20.9 23.5 20.1 95 0.5 SE 6 9 3 5 1016.3 - 1.0
01/06:00am 20.9 23.3 20.1 95 0.5 SSE 7 11 4 6 1016.1 1016.0 1.0
01/05:30am 20.8 22.8 20.0 95 0.5 SE 9 13 5 7 1016.0 - 1.0
01/05:00am 20.9 23.4 20.2 96 0.4 SE 7 9 4 5 1015.8 - 1.0
01/04:30am 20.8 23.2 20.0 95 0.5 SE 7 9 4 5 1015.7 - 1.0
01/04:00am 21.0 23.0 19.9 93 0.7 ESE 9 13 5 7 1015.5 - 1.0
01/03:30am 21.1 22.7 20.0 93 0.7 SE 11 15 6 8 1015.6 - 1.0
01/03:00am 21.2 23.5 19.9 92 0.8 SE 7 9 4 5 1015.6 1015.5 1.0
01/02:30am 21.5 21.5 19.8 90 1.1 ESE 19 33 10 18 1016.3 - 1.0
01/02:00am 21.0 22.4 20.3 96 0.5 SE 13 19 7 10 1016.5 - 1.0
01/01:30am 21.1 23.3 20.3 95 0.5 SE 9 13 5 7 1016.5 - 1.0
01/01:00am 21.2 22.9 20.2 94 0.6 ESE 11 15 6 8 1016.6 - 1.0
01/12:30am 21.2 23.0 20.4 95 0.5 SE 11 17 6 9 1017.0 - 1.0
01/12:25am 21.2 23.0 20.3 95 0.6 SE 11 15 6 8 1017.0 - 1.0
01/12:00am 21.0 21.7 20.4 96 0.4 SE 17 24 9 13 1017.4 1017.3 0.6
 
Date/Time
EST
Temp
°C
App
Temp
°C
Dew
Point
Rel
Hum
%
Delta-T
°C
Wind Press
QNH
hPa
Press
MSL
hPa
Rain
since 9 am
mm
Dir
 
Spd
km/h
Gust
km/h
Spd
kts
Gust
kts
30/11:47pm 21.3 21.7 19.9 92 0.9 SE 17 24 9 13 1017.4 - 0.0
30/11:30pm 21.6 22.9 19.2 86 1.5 ESE 11 15 6 8 1017.2 - 0.0
30/11:00pm 21.6 23.2 19.2 86 1.5 ESE 9 13 5 7 1017.3 - 0.0
30/10:30pm 21.5 22.8 19.2 87 1.5 SE 11 15 6 8 1017.3 - 0.0
30/10:00pm 22.0 22.8 19.0 83 1.9 E 13 19 7 10 1017.3 - 0.0
30/09:30pm 22.2 22.0 19.4 84 1.8 ESE 19 30 10 16 1017.4 - 0.0
30/09:00pm 22.5 21.7 19.2 81 2.1 SE 22 33 12 18 1017.1 1017.0 0.0
30/08:30pm 22.9 21.9 19.7 82 2.1 ESE 24 39 13 21 1016.5 - 0.0
30/08:00pm 23.5 22.7 20.0 81 2.3 SE 24 37 13 20 1015.9 - 0.0
30/07:30pm 24.0 24.6 19.5 76 2.9 SSE 15 24 8 13 1015.2 - 0.0
30/07:00pm 24.6 26.3 19.3 72 3.4 SE 9 15 5 8 1014.6 - 0.0
30/06:30pm 25.3 26.9 19.2 69 3.9 SE 9 19 5 10 1014.4 - 0.0
30/06:00pm 25.9 26.5 18.6 64 4.6 SE 13 20 7 11 1014.1 1014.0 0.0
30/05:30pm 25.9 27.8 18.6 64 4.6 SE 6 7 3 4 1013.7 - 0.0
30/05:00pm 25.5 25.5 19.7 70 3.7 SE 19 24 10 13 1013.5 - 0.0
30/04:30pm 28.1 29.4 17.5 52 6.7 S 7 13 4 7 1013.0 - 0.0
30/04:00pm 27.5 27.9 17.2 53 6.5 SSE 11 19 6 10 1013.0 - 0.0
30/03:30pm 28.3 27.8 17.0 50 7.1 SE 15 22 8 12 1013.1 - 0.0
30/03:00pm 28.4 27.4 16.7 49 7.3 SE 17 26 9 14 1013.3 1013.2 0.0
30/02:30pm 28.0 27.8 17.5 52 6.6 SE 15 24 8 13 1013.5 - 0.0
30/02:00pm 28.1 27.6 17.0 51 7.0 SE 15 22 8 12 1013.7 - 0.0
30/01:30pm 28.7 28.5 16.6 48 7.5 SE 13 22 7 12 1014.2 - 0.0
30/01:00pm 29.4 28.4 16.7 46 8.0 SE 17 28 9 15 1014.7 - 0.0
30/12:30pm 28.0 26.9 17.2 52 6.8 ESE 19 26 10 14 1015.2 - 0.0
30/12:00pm 26.7 26.2 17.7 57 5.7 SE 17 26 9 14 1015.8 1015.7 0.0
30/11:30am 26.5 26.0 17.8 58 5.5 SE 17 28 9 15 1016.2 - 0.0
30/11:00am 25.9 25.5 18.1 62 4.9 SE 17 22 9 12 1016.4 - 0.0
30/10:30am 25.9 26.0 18.3 63 4.8 SE 15 20 8 11 1016.6 - 0.0
30/10:00am 25.5 25.7 18.5 65 4.4 SSE 15 24 8 13 1016.9 - 0.0
30/09:30am 24.5 24.4 18.7 70 3.7 SE 17 24 9 13 1017.0 - 0.0
30/09:00am 24.0 24.4 18.9 73 3.2 SE 15 20 8 11 1016.8 1016.7 0.0
30/08:30am 21.8 22.9 18.8 83 1.9 SE 11 15 6 8 1016.5 - 0.0
30/08:00am 20.5 22.3 18.8 90 1.1 SSE 7 13 4 7 1016.0 - 0.0
30/07:30am 18.7 21.1 18.0 96 0.4 ESE 2 4 1 2 1015.6 - 0.0
30/07:00am 18.1 20.4 17.6 97 0.3 S 2 4 1 2 1015.5 - 0.0
30/06:30am 18.0 19.8 17.4 96 0.4 SSE 4 6 2 3 1015.3 - 0.0
30/06:00am 18.4 20.0 17.8 96 0.4 ESE 6 6 3 3 1015.1 1015.0 0.0
30/05:30am 18.4 19.9 17.7 96 0.4 ESE 6 7 3 4 1014.9 - 0.0
30/05:00am 18.3 19.8 17.6 96 0.4 SSE 6 6 3 3 1014.9 - 0.0
30/04:30am 18.4 20.7 17.8 96 0.4 SE 2 7 1 4 1014.6 - 0.0
30/04:00am 18.6 20.2 17.9 96 0.4 ESE 6 6 3 3 1014.8 - 0.0
30/03:30am 18.4 19.9 17.5 94 0.5 ESE 6 7 3 4 1014.9 - 0.0
30/03:00am 18.6 21.2 17.5 93 0.7 CALM 0 2 0 1 1015.1 1015.0 0.0
30/02:30am 18.8 21.1 17.7 93 0.7 SE 2 4 1 2 1015.2 - 0.0
30/02:00am 19.4 21.9 18.2 93 0.7 ESE 2 4 1 2 1015.4 - 0.0
30/01:30am 19.6 21.8 18.3 92 0.8 ESE 4 4 2 2 1015.7 - 0.0
30/01:00am 19.7 21.8 18.1 90 1.0 SE 4 6 2 3 1015.8 - 0.0
30/12:30am 20.1 21.9 18.3 89 1.1 E 6 6 3 3 1015.8 - 0.0
30/12:00am 20.5 22.8 18.5 88 1.2 ESE 4 6 2 3 1015.9 1015.8 0.0
 
Date/Time
EST
Temp
°C
App
Temp
°C
Dew
Point
Rel
Hum
%
Delta-T
°C
Wind Press
QNH
hPa
Press
MSL
hPa
Rain
since 9 am
mm
Dir
 
Spd
km/h
Gust
km/h
Spd
kts
Gust
kts
29/11:30pm 21.6 23.6 18.8 84 1.8 E 6 7 3 4 1016.1 - 0.0
29/11:00pm 22.0 24.0 18.7 81 2.1 E 6 7 3 4 1016.4 - 0.0
29/10:30pm 22.6 24.5 18.6 78 2.5 E 6 9 3 5 1016.5 - 0.0
29/10:00pm 23.3 24.2 18.5 74 3.0 E 11 17 6 9 1016.3 - 0.0
29/09:30pm 23.9 23.9 18.2 70 3.6 E 15 24 8 13 1016.3 - 0.0
29/09:00pm 24.4 24.9 17.4 65 4.3 E 11 17 6 9 1015.9 1015.8 0.0
29/08:30pm 24.9 24.5 17.1 62 4.8 ESE 15 20 8 11 1015.5 - 0.0
29/08:00pm 25.1 25.8 17.0 60 5.0 E 9 13 5 7 1015.1 - 0.0
29/07:30pm 25.6 25.4 16.6 57 5.6 ESE 13 20 7 11 1014.6 - 0.0
29/07:00pm 25.9 26.3 16.3 55 5.9 ESE 9 13 5 7 1014.1 - 0.0
29/06:30pm 26.7 26.6 16.0 52 6.6 SE 11 15 6 8 1013.7 - 0.0
29/06:00pm 28.0 27.8 15.8 47 7.5 ESE 11 15 6 8 1013.3 1013.2 0.0
29/05:30pm 28.8 27.8 15.5 44 8.2 SE 15 22 8 12 1013.1 - 0.0
29/05:00pm 28.1 27.7 16.1 48 7.4 SE 13 19 7 10 1013.0 - 0.0
29/04:30pm 29.7 29.8 15.6 42 8.7 SSE 9 13 5 7 1012.8 - 0.0
29/04:00pm 29.2 29.4 15.7 44 8.3 SSE 9 13 5 7 1012.8 - 0.0
29/03:30pm 29.8 29.2 15.6 42 8.8 ESE 13 26 7 14 1012.8 - 0.0
29/03:00pm 29.7 29.0 15.3 41 8.8 SE 13 22 7 12 1013.1 1013.0 0.0
29/02:30pm 29.7 29.7 15.2 41 8.9 ESE 9 17 5 9 1013.3 - 0.0
29/02:00pm 29.6 28.5 15.3 41 8.8 SSE 15 30 8 16 1013.7 - 0.0
29/01:30pm 29.7 28.1 15.0 40 9.0 SE 17 26 9 14 1014.2 - 0.0
29/01:00pm 29.0 27.4 14.9 42 8.6 SE 17 26 9 14 1014.9 - 0.0
29/12:30pm 28.8 28.1 15.5 44 8.2 SE 13 20 7 11 1015.3 - 0.0
29/12:00pm 28.0 27.5 15.9 47 7.4 SSE 13 24 7 13 1015.8 1015.7 0.0
29/11:30am 27.8 27.0 16.1 49 7.2 ESE 15 39 8 21 1016.3 - 0.0
29/11:00am 26.7 25.2 16.2 52 6.5 ESE 19 28 10 15 1016.8 - 0.0
29/10:30am 26.0 24.4 16.6 56 5.8 ESE 20 32 11 17 1017.3 - 0.0
29/10:00am 25.1 24.7 17.1 61 5.0 ESE 15 22 8 12 1017.7 - 0.0
29/09:30am 24.4 23.9 17.9 67 4.1 ESE 17 22 9 12 1017.9 - 0.0
29/09:00am 22.7 23.2 18.4 76 2.7 ESE 13 17 7 9 1017.9 1017.8 0.0
29/08:30am 20.7 21.5 18.1 85 1.6 ESE 11 13 6 7 1017.9 - 0.0
29/08:00am 18.9 20.2 17.5 92 0.9 SE 7 11 4 6 1017.8 - 0.0
29/07:30am 17.4 18.5 16.6 95 0.5 ESE 6 7 3 4 1017.6 - 0.0
29/07:00am 16.0 17.3 15.2 95 0.5 SE 2 4 1 2 1017.3 - 0.0
29/06:30am 16.3 17.7 15.4 94 0.5 SE 2 4 1 2 1016.9 - 0.0
29/06:00am 17.1 18.2 16.6 97 0.3 ESE 6 6 3 3 1016.8 1016.7 0.0
29/05:30am 16.9 17.8 16.2 96 0.4 ESE 6 6 3 3 1016.7 - 0.0
29/05:00am 16.5 17.6 15.5 94 0.6 ESE 4 4 2 2 1016.6 - 0.0
29/04:30am 16.7 18.2 15.6 93 0.6 ESE 2 2 1 1 1016.5 - 0.0
29/04:00am 16.7 18.1 15.5 93 0.7 SSE 2 4 1 2 1016.5 - 0.0
29/03:30am 16.9 18.0 15.7 93 0.7 ESE 4 6 2 3 1016.5 - 0.0
29/03:00am 17.0 18.9 15.7 92 0.8 CALM 0 0 0 0 1016.5 1016.4 0.0
29/02:30am 17.4 19.4 16.1 92 0.8 CALM 0 4 0 2 1016.8 - 0.0
29/02:00am 17.9 20.0 16.3 90 1.0 CALM 0 2 0 1 1017.1 - 0.0
29/01:30am 18.2 20.4 16.5 90 1.0 CALM 0 2 0 1 1017.5 - 0.0
29/01:00am 18.4 20.3 16.6 89 1.1 ESE 2 4 1 2 1017.7 - 0.0
29/12:30am 18.5 20.4 16.8 90 1.0 ESE 2 4 1 2 1018.0 - 0.0
29/12:00am 19.4 21.4 17.0 86 1.5 SE 2 4 1 2 1018.2 1018.1 0.0
 
Date/Time
EST
Temp
°C
App
Temp
°C
Dew
Point
Rel
Hum
%
Delta-T
°C
Wind Press
QNH
hPa
Press
MSL
hPa
Rain
since 9 am
mm
Dir
 
Spd
km/h
Gust
km/h
Spd
kts
Gust
kts
28/11:30pm 19.7 22.3 17.4 86 1.4 CALM 0 0 0 0 1018.3 - 0.0
28/11:00pm 20.4 23.0 17.6 84 1.7 CALM 0 2 0 1 1018.4 - 0.0
28/10:30pm 21.5 23.2 17.2 76 2.6 E 4 6 2 3 1018.5 - 0.0
28/10:00pm 22.8 24.1 17.0 70 3.6 E 6 7 3 4 1018.6 - 0.0
28/09:30pm 23.7 24.7 16.8 65 4.2 E 7 9 4 5 1018.5 - 0.0
28/09:00pm 24.0 25.0 16.8 64 4.4 E 7 11 4 6 1018.3 1018.2 0.0
28/08:30pm 24.7 25.6 16.5 60 5.0 E 7 15 4 8 1017.9 - 0.0
28/08:00pm 25.1 26.4 17.5 62 4.7 E 7 13 4 7 1017.5 - 0.0
28/07:30pm 24.7 28.1 20.1 75 3.0 N 2 4 1 2 1017.0 - 0.0
28/07:00pm 24.7 27.7 20.1 75 3.0 WNW 4 6 2 3 1016.4 - 0.0
28/06:30pm 25.0 28.3 20.0 74 3.2 W 2 7 1 4 1015.9 - 0.0
28/06:00pm 25.8 28.0 19.3 67 4.2 W 6 11 3 6 1015.6 1015.5 0.0
28/05:30pm 26.8 27.7 18.5 60 5.3 W 11 20 6 11 1015.3 - 0.0
28/05:00pm 29.9 29.9 14.2 38 9.5 SE 7 15 4 8 1014.9 - 0.0
28/04:30pm 30.6 29.1 12.0 32 10.9 SE 11 24 6 13 1014.5 - 0.0
28/04:00pm 29.4 27.7 12.5 35 9.9 SE 13 19 7 10 1014.6 - 0.0
28/03:30pm 29.7 27.0 12.9 35 9.9 ESE 19 24 10 13 1014.6 - 0.0
28/03:00pm 31.2 29.4 13.2 33 10.8 ESE 15 22 8 12 1014.7 1014.6 0.0
28/02:30pm 30.3 29.0 13.7 36 10.0 SSE 13 26 7 14 1015.0 - 0.0
28/02:00pm 30.4 28.3 13.6 35 10.1 ESE 17 30 9 16 1015.2 - 0.0
28/01:30pm 29.9 28.0 14.3 38 9.4 ESE 17 30 9 16 1015.7 - 0.0
28/01:00pm 29.4 27.0 14.3 39 9.1 ESE 20 30 11 16 1016.2 - 0.0
28/12:30pm 28.6 27.2 15.5 45 8.0 SE 17 28 9 15 1016.7 - 0.0
28/12:00pm 28.6 26.8 15.4 44 8.1 ESE 19 26 10 14 1017.0 1016.9 0.0
28/11:30am 27.8 27.1 16.5 50 7.0 ESE 15 22 8 12 1017.4 - 0.0

Other Formats:

Comma delimited format used in spreadsheet applications
http://www.bom.gov.au/fwo/IDQ60801/IDQ60801.94170.axf

JavaScript Object Notation format (JSON) in row-major order
http://www.bom.gov.au/fwo/IDQ60801/IDQ60801.94170.json